sensor_id;sensor_type;location;lat;lon;timestamp;pressure;altitude;pressure_sealevel;temperature;humidity
6833;BME280;3454;42.654;23.378;2024-03-02T00:00:26;63862.69;;;8.84;100.00
6833;BME280;3454;42.654;23.378;2024-03-02T00:02:52;63864.09;;;8.83;100.00
6833;BME280;3454;42.654;23.378;2024-03-02T00:05:19;63855.34;;;8.75;100.00
6833;BME280;3454;42.654;23.378;2024-03-02T00:07:47;63864.41;;;8.81;100.00
6833;BME280;3454;42.654;23.378;2024-03-02T00:10:20;63865.72;;;8.85;100.00
6833;BME280;3454;42.654;23.378;2024-03-02T00:12:50;63864.41;;;8.81;100.00
6833;BME280;3454;42.654;23.378;2024-03-02T00:15:41;63866.06;;;8.83;100.00
6833;BME280;3454;42.654;23.378;2024-03-02T00:18:16;63863.88;;;8.81;100.00
6833;BME280;3454;42.654;23.378;2024-03-02T00:20:43;63849.66;;;8.68;100.00
6833;BME280;3454;42.654;23.378;2024-03-02T00:23:10;63831.09;;;8.51;100.00
6833;BME280;3454;42.654;23.378;2024-03-02T00:25:43;63828.91;;;8.48;100.00
6833;BME280;3454;42.654;23.378;2024-03-02T00:28:25;63829.22;;;8.46;100.00
6833;BME280;3454;42.654;23.378;2024-03-02T00:33:35;63815.81;;;8.36;100.00
6833;BME280;3454;42.654;23.378;2024-03-02T00:36:02;63804.56;;;8.28;100.00
6833;BME280;3454;42.654;23.378;2024-03-02T00:38:29;63811.88;;;8.37;100.00
6833;BME280;3454;42.654;23.378;2024-03-02T00:40:56;63822.91;;;8.43;100.00
6833;BME280;3454;42.654;23.378;2024-03-02T00:46:35;63816.56;;;8.39;100.00
6833;BME280;3454;42.654;23.378;2024-03-02T00:49:11;63813.09;;;8.34;100.00
6833;BME280;3454;42.654;23.378;2024-03-02T00:51:38;63821.69;;;8.46;100.00
6833;BME280;3454;42.654;23.378;2024-03-02T00:54:07;63829.13;;;8.51;100.00
6833;BME280;3454;42.654;23.378;2024-03-02T00:56:33;63832.41;;;8.54;100.00
6833;BME280;3454;42.654;23.378;2024-03-02T00:59:00;63842.00;;;8.61;100.00
6833;BME280;3454;42.654;23.378;2024-03-02T01:01:26;63856.44;;;8.76;100.00
6833;BME280;3454;42.654;23.378;2024-03-02T01:03:52;63861.69;;;8.79;100.00
6833;BME280;3454;42.654;23.378;2024-03-02T01:06:18;63866.59;;;8.83;100.00
6833;BME280;3454;42.654;23.378;2024-03-02T01:08:44;63879.16;;;8.95;100.00
6833;BME280;3454;42.654;23.378;2024-03-02T01:11:10;63874.25;;;8.90;100.00
6833;BME280;3454;42.654;23.378;2024-03-02T01:13:36;63896.66;;;9.11;100.00
6833;BME280;3454;42.654;23.378;2024-03-02T01:16:02;63900.16;;;9.16;100.00
6833;BME280;3454;42.654;23.378;2024-03-02T01:18:28;63898.19;;;9.17;100.00
6833;BME280;3454;42.654;23.378;2024-03-02T01:21:01;63924.53;;;9.37;100.00
6833;BME280;3454;42.654;23.378;2024-03-02T01:23:27;63923.44;;;9.36;100.00
6833;BME280;3454;42.654;23.378;2024-03-02T01:25:53;63927.81;;;9.40;100.00
6833;BME280;3454;42.654;23.378;2024-03-02T01:28:18;63920.72;;;9.33;100.00
6833;BME280;3454;42.654;23.378;2024-03-02T01:30:46;63931.31;;;9.45;100.00
6833;BME280;3454;42.654;23.378;2024-03-02T01:33:13;63911.66;;;9.27;100.00
6833;BME280;3454;42.654;23.378;2024-03-02T01:35:39;63898.84;;;9.13;100.00
6833;BME280;3454;42.654;23.378;2024-03-02T01:38:04;63913.59;;;9.26;100.00
6833;BME280;3454;42.654;23.378;2024-03-02T01:40:36;63924.22;;;9.39;100.00
6833;BME280;3454;42.654;23.378;2024-03-02T01:43:04;63923.09;;;9.38;100.00
6833;BME280;3454;42.654;23.378;2024-03-02T01:45:30;63937.66;;;9.49;100.00
6833;BME280;3454;42.654;23.378;2024-03-02T01:47:56;63917.09;;;9.32;100.00
6833;BME280;3454;42.654;23.378;2024-03-02T01:50:26;63943.09;;;9.54;100.00
6833;BME280;3454;42.654;23.378;2024-03-02T01:52:52;63949.91;;;9.62;100.00
6833;BME280;3454;42.654;23.378;2024-03-02T01:55:18;63951.53;;;9.64;100.00
6833;BME280;3454;42.654;23.378;2024-03-02T01:57:44;63959.75;;;9.71;100.00
6833;BME280;3454;42.654;23.378;2024-03-02T02:00:10;63939.19;;;9.55;100.00
6833;BME280;3454;42.654;23.378;2024-03-02T02:02:36;63958.97;;;9.68;100.00
6833;BME280;3454;42.654;23.378;2024-03-02T02:05:02;63961.72;;;9.71;100.00
6833;BME280;3454;42.654;23.378;2024-03-02T02:07:28;63943.34;;;9.56;100.00
6833;BME280;3454;42.654;23.378;2024-03-02T02:09:54;63956.78;;;9.66;100.00
6833;BME280;3454;42.654;23.378;2024-03-02T02:12:19;63969.03;;;9.80;100.00
6833;BME280;3454;42.654;23.378;2024-03-02T02:14:49;63967.94;;;9.79;100.00
6833;BME280;3454;42.654;23.378;2024-03-02T02:17:15;63985.22;;;9.92;100.00
6833;BME280;3454;42.654;23.378;2024-03-02T02:19:41;63970.47;;;9.79;100.00
6833;BME280;3454;42.654;23.378;2024-03-02T02:22:08;63948.59;;;9.59;100.00
6833;BME280;3454;42.654;23.378;2024-03-02T02:24:33;63958.41;;;9.68;100.00
6833;BME280;3454;42.654;23.378;2024-03-02T02:26:59;63961.38;;;9.73;100.00
6833;BME280;3454;42.654;23.378;2024-03-02T02:29:24;63982.16;;;9.92;100.00
6833;BME280;3454;42.654;23.378;2024-03-02T02:31:50;63984.88;;;9.94;100.00
6833;BME280;3454;42.654;23.378;2024-03-02T02:34:16;63973.63;;;9.86;100.00
6833;BME280;3454;42.654;23.378;2024-03-02T02:36:41;63968.16;;;9.81;100.00
6833;BME280;3454;42.654;23.378;2024-03-02T02:39:11;63956.78;;;9.66;100.00
6833;BME280;3454;42.654;23.378;2024-03-02T02:41:38;63963.34;;;9.72;100.00
6833;BME280;3454;42.654;23.378;2024-03-02T02:44:05;63969.69;;;9.76;100.00
6833;BME280;3454;42.654;23.378;2024-03-02T02:46:31;63948.03;;;9.58;100.00
6833;BME280;3454;42.654;23.378;2024-03-02T02:48:56;63955.69;;;9.65;100.00
6833;BME280;3454;42.654;23.378;2024-03-02T02:51:22;63952.97;;;9.63;100.00
6833;BME280;3454;42.654;23.378;2024-03-02T02:53:49;63959.19;;;9.71;100.00
6833;BME280;3454;42.654;23.378;2024-03-02T02:56:15;63962.78;;;9.72;100.00
6833;BME280;3454;42.654;23.378;2024-03-02T02:58:41;63963.56;;;9.75;100.00
6833;BME280;3454;42.654;23.378;2024-03-02T03:01:07;63983.91;;;9.89;100.00
6833;BME280;3454;42.654;23.378;2024-03-02T03:03:33;63981.06;;;9.91;100.00
6833;BME280;3454;42.654;23.378;2024-03-02T03:05:58;63982.16;;;9.92;100.00
6833;BME280;3454;42.654;23.378;2024-03-02T03:08:24;63991.22;;;9.98;100.00
6833;BME280;3454;42.654;23.378;2024-03-02T03:10:50;63980.84;;;9.88;100.00
6833;BME280;3454;42.654;23.378;2024-03-02T03:13:22;63988.19;;;9.97;100.00
6833;BME280;3454;42.654;23.378;2024-03-02T03:15:48;63987.31;;;9.99;100.00
6833;BME280;3454;42.654;23.378;2024-03-02T03:18:13;63997.25;;;10.03;100.00
6833;BME280;3454;42.654;23.378;2024-03-02T03:20:39;64006.78;;;10.14;100.00
6833;BME280;3454;42.654;23.378;2024-03-02T03:23:04;64003.53;;;10.11;100.00
6833;BME280;3454;42.654;23.378;2024-03-02T03:25:30;64008.22;;;10.13;100.00
6833;BME280;3454;42.654;23.378;2024-03-02T03:27:56;64008.44;;;10.16;100.00
6833;BME280;3454;42.654;23.378;2024-03-02T03:30:22;64011.50;;;10.17;100.00
6833;BME280;3454;42.654;23.378;2024-03-02T03:32:48;63998.34;;;10.04;100.00
6833;BME280;3454;42.654;23.378;2024-03-02T03:35:14;63989.25;;;9.98;100.00
6833;BME280;3454;42.654;23.378;2024-03-02T03:37:41;63997.78;;;10.04;100.00
6833;BME280;3454;42.654;23.378;2024-03-02T03:40:07;63994.75;;;10.03;100.00
6833;BME280;3454;42.654;23.378;2024-03-02T03:42:36;63996.94;;;10.05;100.00
6833;BME280;3454;42.654;23.378;2024-03-02T03:45:05;63996.94;;;10.05;100.00
6833;BME280;3454;42.654;23.378;2024-03-02T03:47:32;63996.94;;;10.05;100.00
6833;BME280;3454;42.654;23.378;2024-03-02T03:49:58;63999.44;;;10.05;100.00
6833;BME280;3454;42.654;23.378;2024-03-02T03:52:24;63998.34;;;10.04;100.00
6833;BME280;3454;42.654;23.378;2024-03-02T03:54:50;64000.53;;;10.06;100.00
6833;BME280;3454;42.654;23.378;2024-03-02T03:57:16;64010.94;;;10.16;100.00
6833;BME280;3454;42.654;23.378;2024-03-02T03:59:42;64007.56;;;10.18;100.00
6833;BME280;3454;42.654;23.378;2024-03-02T04:02:08;64004.94;;;10.10;100.00
6833;BME280;3454;42.654;23.378;2024-03-02T04:04:34;63993.97;;;10.00;100.00
6833;BME280;3454;42.654;23.378;2024-03-02T04:07:00;63999.44;;;10.05;100.00
6833;BME280;3454;42.654;23.378;2024-03-02T04:09:26;63993.97;;;10.00;100.00
6833;BME280;3454;42.654;23.378;2024-03-02T04:11:52;63983.25;;;9.93;100.00
6833;BME280;3454;42.654;23.378;2024-03-02T04:14:18;63982.38;;;9.94;100.00
6833;BME280;3454;42.654;23.378;2024-03-02T04:16:44;63991.22;;;9.98;100.00
6833;BME280;3454;42.654;23.378;2024-03-02T04:19:09;63991.78;;;9.98;100.00
6833;BME280;3454;42.654;23.378;2024-03-02T04:21:35;63981.06;;;9.91;100.00
6833;BME280;3454;42.654;23.378;2024-03-02T04:24:00;63989.25;;;9.98;100.00
6833;BME280;3454;42.654;23.378;2024-03-02T04:26:26;63983.59;;;9.91;100.00
6833;BME280;3454;42.654;23.378;2024-03-02T04:28:54;63990.38;;;9.99;100.00
6833;BME280;3454;42.654;23.378;2024-03-02T04:31:20;63996.94;;;10.05;100.00
6833;BME280;3454;42.654;23.378;2024-03-02T04:33:46;63965.53;;;9.74;100.00
6833;BME280;3454;42.654;23.378;2024-03-02T04:36:11;63989.59;;;9.96;100.00
6833;BME280;3454;42.654;23.378;2024-03-02T04:38:38;63986.53;;;9.96;100.00
6833;BME280;3454;42.654;23.378;2024-03-02T04:41:07;63993.97;;;10.00;100.00
6833;BME280;3454;42.654;23.378;2024-03-02T04:43:33;63981.41;;;9.89;100.00
6833;BME280;3454;42.654;23.378;2024-03-02T04:45:59;63992.88;;;9.99;100.00
6833;BME280;3454;42.654;23.378;2024-03-02T04:48:25;63989.81;;;9.99;100.00
6833;BME280;3454;42.654;23.378;2024-03-02T04:50:51;63990.91;;;10.00;100.00
6833;BME280;3454;42.654;23.378;2024-03-02T04:53:17;63991.47;;;10.00;100.00
6833;BME280;3454;42.654;23.378;2024-03-02T04:55:42;63979.44;;;9.89;100.00
6833;BME280;3454;42.654;23.378;2024-03-02T04:58:08;63988.19;;;9.97;100.00
6833;BME280;3454;42.654;23.378;2024-03-02T05:00:34;63981.94;;;9.89;100.00
6833;BME280;3454;42.654;23.378;2024-03-02T05:03:00;63963.91;;;9.73;100.00
6833;BME280;3454;42.654;23.378;2024-03-02T05:05:26;63973.72;;;9.82;100.00
6833;BME280;3454;42.654;23.378;2024-03-02T05:07:52;63983.81;;;9.93;100.00
6833;BME280;3454;42.654;23.378;2024-03-02T05:10:18;63980.84;;;9.88;100.00
6833;BME280;3454;42.654;23.378;2024-03-02T05:12:43;63996.94;;;10.05;100.00
6833;BME280;3454;42.654;23.378;2024-03-02T05:15:13;63998.00;;;10.06;100.00
6833;BME280;3454;42.654;23.378;2024-03-02T05:17:40;63979.63;;;9.92;100.00
6833;BME280;3454;42.654;23.378;2024-03-02T05:20:09;63989.25;;;9.98;100.00
6833;BME280;3454;42.654;23.378;2024-03-02T05:22:35;63984.88;;;9.94;100.00
6833;BME280;3454;42.654;23.378;2024-03-02T05:25:01;63985.13;;;9.97;100.00
6833;BME280;3454;42.654;23.378;2024-03-02T05:27:27;63994.19;;;10.03;100.00
6833;BME280;3454;42.654;23.378;2024-03-02T05:29:53;63991.22;;;9.98;100.00
6833;BME280;3454;42.654;23.378;2024-03-02T05:32:20;63995.84;;;10.04;100.00
6833;BME280;3454;42.654;23.378;2024-03-02T05:34:45;64000.53;;;10.06;100.00
6833;BME280;3454;42.654;23.378;2024-03-02T05:37:11;63998.91;;;10.05;100.00
6833;BME280;3454;42.654;23.378;2024-03-02T05:39:37;63999.78;;;10.03;100.00
6833;BME280;3454;42.654;23.378;2024-03-02T05:42:03;63973.53;;;9.79;100.00
6833;BME280;3454;42.654;23.378;2024-03-02T05:44:29;63980.50;;;9.90;100.00
6833;BME280;3454;42.654;23.378;2024-03-02T05:46:55;63990.03;;;10.01;100.00
6833;BME280;3454;42.654;23.378;2024-03-02T05:49:22;64000.53;;;10.06;100.00
6833;BME280;3454;42.654;23.378;2024-03-02T05:51:47;63999.13;;;10.07;100.00
6833;BME280;3454;42.654;23.378;2024-03-02T05:54:13;63994.19;;;10.03;100.00
6833;BME280;3454;42.654;23.378;2024-03-02T05:56:38;63984.88;;;9.94;100.00
6833;BME280;3454;42.654;23.378;2024-03-02T05:59:04;63989.03;;;9.96;100.00
6833;BME280;3454;42.654;23.378;2024-03-02T06:01:42;63984.66;;;9.92;100.00
6833;BME280;3454;42.654;23.378;2024-03-02T06:04:08;63997.03;;;10.01;100.00
6833;BME280;3454;42.654;23.378;2024-03-02T06:06:34;63992.34;;;9.99;100.00
6833;BME280;3454;42.654;23.378;2024-03-02T06:09:01;63985.66;;;9.97;100.00
6833;BME280;3454;42.654;23.378;2024-03-02T06:11:28;63985.22;;;9.92;100.00
6833;BME280;3454;42.654;23.378;2024-03-02T06:13:54;63983.03;;;9.90;100.00
6833;BME280;3454;42.654;23.378;2024-03-02T06:16:20;63974.84;;;9.83;100.00
6833;BME280;3454;42.654;23.378;2024-03-02T06:18:46;63974.28;;;9.82;100.00
6833;BME280;3454;42.654;23.378;2024-03-02T06:21:12;63977.56;;;9.85;100.00
6833;BME280;3454;42.654;23.378;2024-03-02T06:23:38;63965.44;;;9.79;100.00
6833;BME280;3454;42.654;23.378;2024-03-02T06:26:04;63968.69;;;9.82;100.00
6833;BME280;3454;42.654;23.378;2024-03-02T06:28:30;63962.25;;;9.71;100.00
6833;BME280;3454;42.654;23.378;2024-03-02T06:30:56;63963.00;;;9.74;100.00
6833;BME280;3454;42.654;23.378;2024-03-02T06:33:21;63979.97;;;9.90;100.00
6833;BME280;3454;42.654;23.378;2024-03-02T06:35:47;63976.47;;;9.84;100.00
6833;BME280;3454;42.654;23.378;2024-03-02T06:38:14;63975.38;;;9.83;100.00
6833;BME280;3454;42.654;23.378;2024-03-02T06:40:39;63975.06;;;9.85;100.00
6833;BME280;3454;42.654;23.378;2024-03-02T06:43:06;63978.66;;;9.86;100.00
6833;BME280;3454;42.654;23.378;2024-03-02T06:45:31;63968.81;;;9.77;100.00
6833;BME280;3454;42.654;23.378;2024-03-02T06:47:59;63971.53;;;9.80;100.00
6833;BME280;3454;42.654;23.378;2024-03-02T06:50:25;63972.09;;;9.80;100.00
6833;BME280;3454;42.654;23.378;2024-03-02T06:52:50;63972.88;;;9.83;100.00
6833;BME280;3454;42.654;23.378;2024-03-02T06:55:17;63976.16;;;9.86;100.00
6833;BME280;3454;42.654;23.378;2024-03-02T06:57:42;63971.78;;;9.82;100.00
6833;BME280;3454;42.654;23.378;2024-03-02T07:00:08;63972.31;;;9.83;100.00
6833;BME280;3454;42.654;23.378;2024-03-02T07:02:35;63979.75;;;9.87;100.00
6833;BME280;3454;42.654;23.378;2024-03-02T07:05:02;63982.69;;;9.92;100.00
6833;BME280;3454;42.654;23.378;2024-03-02T07:07:27;63996.72;;;10.03;100.00
6833;BME280;3454;42.654;23.378;2024-03-02T07:09:53;63981.72;;;9.87;100.00
6833;BME280;3454;42.654;23.378;2024-03-02T07:12:18;63986.66;;;9.91;100.00
6833;BME280;3454;42.654;23.378;2024-03-02T07:14:44;63980.19;;;9.92;100.00
6833;BME280;3454;42.654;23.378;2024-03-02T07:17:28;63990.69;;;9.97;100.00
6833;BME280;3454;42.654;23.378;2024-03-02T07:19:54;63976.69;;;9.87;100.00
6833;BME280;3454;42.654;23.378;2024-03-02T07:22:19;63986.00;;;9.95;100.00
6833;BME280;3454;42.654;23.378;2024-03-02T07:24:45;63986.53;;;9.96;100.00
6833;BME280;3454;42.654;23.378;2024-03-02T07:27:14;63989.50;;;10.01;100.00
6833;BME280;3454;42.654;23.378;2024-03-02T07:29:41;63996.16;;;10.02;100.00
6833;BME280;3454;42.654;23.378;2024-03-02T07:32:07;64000.22;;;10.08;100.00
6833;BME280;3454;42.654;23.378;2024-03-02T07:34:34;63992.00;;;10.01;100.00
6833;BME280;3454;42.654;23.378;2024-03-02T07:36:59;63996.16;;;10.02;100.00
6833;BME280;3454;42.654;23.378;2024-03-02T07:39:26;64002.97;;;10.11;100.00
6833;BME280;3454;42.654;23.378;2024-03-02T07:41:52;64008.97;;;10.17;100.00
6833;BME280;3454;42.654;23.378;2024-03-02T07:44:18;64009.19;;;10.19;100.00
6833;BME280;3454;42.654;23.378;2024-03-02T07:46:48;64013.69;;;10.19;100.00
6833;BME280;3454;42.654;23.378;2024-03-02T07:49:16;64016.66;;;10.24;100.00
6833;BME280;3454;42.654;23.378;2024-03-02T07:51:42;64018.84;;;10.26;100.00
6833;BME280;3454;42.654;23.378;2024-03-02T07:54:08;64017.50;;;10.22;100.00
6833;BME280;3454;42.654;23.378;2024-03-02T07:56:34;63994.75;;;10.03;100.00
6833;BME280;3454;42.654;23.378;2024-03-02T07:59:01;63995.06;;;10.01;100.00
6833;BME280;3454;42.654;23.378;2024-03-02T08:01:32;64001.63;;;10.07;100.00
6833;BME280;3454;42.654;23.378;2024-03-02T08:04:02;64004.38;;;10.10;100.00
6833;BME280;3454;42.654;23.378;2024-03-02T08:06:29;64001.63;;;10.07;100.00
6833;BME280;3454;42.654;23.378;2024-03-02T08:08:56;63996.94;;;10.05;100.00
6833;BME280;3454;42.654;23.378;2024-03-02T08:11:22;64006.56;;;10.12;100.00
6833;BME280;3454;42.654;23.378;2024-03-02T08:13:49;64016.66;;;10.24;100.00
6833;BME280;3454;42.654;23.378;2024-03-02T08:16:15;64025.72;;;10.30;100.00
6833;BME280;3454;42.654;23.378;2024-03-02T08:18:42;64028.69;;;10.35;100.00
6833;BME280;3454;42.654;23.378;2024-03-02T08:21:07;64031.63;;;10.40;100.00
6833;BME280;3454;42.654;23.378;2024-03-02T08:23:34;64046.19;;;10.51;100.00
6833;BME280;3454;42.654;23.378;2024-03-02T08:25:59;64049.81;;;10.52;100.00
6833;BME280;3454;42.654;23.378;2024-03-02T08:28:25;64049.25;;;10.51;100.00
6833;BME280;3454;42.654;23.378;2024-03-02T08:30:51;64037.75;;;10.41;100.00
6833;BME280;3454;42.654;23.378;2024-03-02T08:33:17;64042.34;;;10.47;100.00
6833;BME280;3454;42.654;23.378;2024-03-02T08:35:42;64044.00;;;10.49;100.00
6833;BME280;3454;42.654;23.378;2024-03-02T08:38:08;64053.09;;;10.55;100.00
6833;BME280;3454;42.654;23.378;2024-03-02T08:40:33;64058.56;;;10.60;100.00
6833;BME280;3454;42.654;23.378;2024-03-02T08:42:59;64065.88;;;10.69;100.00
6833;BME280;3454;42.654;23.378;2024-03-02T08:45:25;64073.56;;;10.76;100.00
6833;BME280;3454;42.654;23.378;2024-03-02T08:47:50;64084.84;;;10.84;100.00
6833;BME280;3454;42.654;23.378;2024-03-02T08:50:16;64073.88;;;10.74;100.00
6833;BME280;3454;42.654;23.378;2024-03-02T08:52:41;64077.38;;;10.79;100.00
6833;BME280;3454;42.654;23.378;2024-03-02T08:55:07;64082.88;;;10.84;100.00
6833;BME280;3454;42.654;23.378;2024-03-02T08:57:33;64076.84;;;10.79;100.00
6833;BME280;3454;42.654;23.378;2024-03-02T09:00:00;64075.75;;;10.78;100.00
6833;BME280;3454;42.654;23.378;2024-03-02T09:02:26;64084.50;;;10.86;100.00
6833;BME280;3454;42.654;23.378;2024-03-02T09:04:52;64072.47;;;10.75;100.00
6833;BME280;3454;42.654;23.378;2024-03-02T09:07:18;64084.28;;;10.83;100.00
6833;BME280;3454;42.654;23.378;2024-03-02T09:09:44;64085.06;;;10.86;100.00
6833;BME280;3454;42.654;23.378;2024-03-02T09:12:09;64094.91;;;10.95;100.00
6833;BME280;3454;42.654;23.378;2024-03-02T09:14:36;64094.69;;;10.93;100.00
6833;BME280;3454;42.654;23.378;2024-03-02T09:17:03;64084.50;;;10.86;100.00
6833;BME280;3454;42.654;23.378;2024-03-02T09:19:29;64096.53;;;10.97;100.00
6833;BME280;3454;42.654;23.378;2024-03-02T09:21:54;64110.00;;;11.07;100.00
6833;BME280;3454;42.654;23.378;2024-03-02T09:24:21;64124.03;;;11.18;100.00
6833;BME280;3454;42.654;23.378;2024-03-02T09:26:47;64102.34;;;11.00;100.00
6833;BME280;3454;42.654;23.378;2024-03-02T09:29:13;64110.00;;;11.07;100.00
6833;BME280;3454;42.654;23.378;2024-03-02T09:31:42;64088.88;;;10.90;100.00
6833;BME280;3454;42.654;23.378;2024-03-02T09:34:08;64095.78;;;10.94;100.00
6833;BME280;3454;42.654;23.378;2024-03-02T09:36:33;64094.34;;;10.95;100.00
6833;BME280;3454;42.654;23.378;2024-03-02T09:38:59;64097.09;;;10.97;100.00
6833;BME280;3454;42.654;23.378;2024-03-02T09:41:25;64101.25;;;10.99;100.00
6833;BME280;3454;42.654;23.378;2024-03-02T09:43:51;64104.78;;;11.05;100.00
6833;BME280;3454;42.654;23.378;2024-03-02T09:46:17;64113.53;;;11.13;100.00
6833;BME280;3454;42.654;23.378;2024-03-02T09:48:44;64116.25;;;11.15;100.00
6833;BME280;3454;42.654;23.378;2024-03-02T09:51:11;64114.28;;;11.16;100.00
6833;BME280;3454;42.654;23.378;2024-03-02T09:53:37;64101.25;;;10.99;100.00
6833;BME280;3454;42.654;23.378;2024-03-02T09:56:03;64079.34;;;10.79;100.00
6833;BME280;3454;42.654;23.378;2024-03-02T09:58:30;64092.16;;;10.93;100.00
6833;BME280;3454;42.654;23.378;2024-03-02T10:00:56;64102.59;;;11.03;100.00
6833;BME280;3454;42.654;23.378;2024-03-02T10:03:23;64112.97;;;11.12;100.00
6833;BME280;3454;42.654;23.378;2024-03-02T10:05:52;64118.78;;;11.15;100.00
6833;BME280;3454;42.654;23.378;2024-03-02T10:08:18;64108.94;;;11.06;100.00
6833;BME280;3454;42.654;23.378;2024-03-02T10:10:44;64117.91;;;11.17;100.00
6833;BME280;3454;42.654;23.378;2024-03-02T10:13:12;64153.50;;;11.49;100.00
6833;BME280;3454;42.654;23.378;2024-03-02T10:15:39;64205.34;;;11.95;100.00
6833;BME280;3454;42.654;23.378;2024-03-02T10:18:11;64188.03;;;11.81;100.00
6833;BME280;3454;42.654;23.378;2024-03-02T10:20:38;64169.38;;;11.64;100.00
6833;BME280;3454;42.654;23.378;2024-03-02T10:23:19;64157.34;;;11.53;100.00
6833;BME280;3454;42.654;23.378;2024-03-02T10:25:46;64106.06;;;11.08;100.00
6833;BME280;3454;42.654;23.378;2024-03-02T10:28:12;64109.69;;;11.09;100.00
6833;BME280;3454;42.654;23.378;2024-03-02T10:30:38;64135.75;;;11.31;100.00
6833;BME280;3454;42.654;23.378;2024-03-02T10:33:06;64131.81;;;11.32;100.00
6833;BME280;3454;42.654;23.378;2024-03-02T10:35:32;64128.31;;;11.26;100.00
6833;BME280;3454;42.654;23.378;2024-03-02T10:38:04;64137.97;;;11.33;100.00
6833;BME280;3454;42.654;23.378;2024-03-02T10:40:36;64136.84;;;11.32;100.00
6833;BME280;3454;42.654;23.378;2024-03-02T10:43:02;64135.97;;;11.33;100.00
6833;BME280;3454;42.654;23.378;2024-03-02T10:45:30;64131.25;;;11.31;100.00
6833;BME280;3454;42.654;23.378;2024-03-02T10:47:56;64143.97;;;11.38;100.00
6833;BME280;3454;42.654;23.378;2024-03-02T10:50:24;64144.19;;;11.41;100.00
6833;BME280;3454;42.654;23.378;2024-03-02T10:52:49;64121.41;;;11.22;100.00
6833;BME280;3454;42.654;23.378;2024-03-02T10:55:15;64138.50;;;11.33;100.00
6833;BME280;3454;42.654;23.378;2024-03-02T10:57:50;64137.63;;;11.35;100.00
6833;BME280;3454;42.654;23.378;2024-03-02T11:00:18;64143.66;;;11.40;100.00
6833;BME280;3454;42.654;23.378;2024-03-02T11:02:56;64142.88;;;11.37;100.00
6833;BME280;3454;42.654;23.378;2024-03-02T11:05:45;64146.72;;;11.41;100.00
6833;BME280;3454;42.654;23.378;2024-03-02T11:08:13;64141.44;;;11.38;100.00
6833;BME280;3454;42.654;23.378;2024-03-02T11:10:52;64262.38;;;12.47;100.00
6833;BME280;3454;42.654;23.378;2024-03-02T11:13:23;64219.28;;;12.10;100.00
6833;BME280;3454;42.654;23.378;2024-03-02T11:15:53;64195.16;;;11.88;100.00
6833;BME280;3454;42.654;23.378;2024-03-02T11:18:21;64183.44;;;11.74;100.00
6833;BME280;3454;42.654;23.378;2024-03-02T11:20:47;64167.97;;;11.65;100.00
6833;BME280;3454;42.654;23.378;2024-03-02T11:23:13;64169.19;;;11.61;100.00
6833;BME280;3454;42.654;23.378;2024-03-02T11:25:39;64157.69;;;11.51;100.00
6833;BME280;3454;42.654;23.378;2024-03-02T11:28:06;64148.25;;;11.47;100.00
6833;BME280;3454;42.654;23.378;2024-03-02T11:32:58;64135.97;;;11.33;100.00
6833;BME280;3454;42.654;23.378;2024-03-02T11:35:25;64142.75;;;11.42;100.00
6833;BME280;3454;42.654;23.378;2024-03-02T11:37:52;64142.53;;;11.39;100.00
6833;BME280;3454;42.654;23.378;2024-03-02T11:40:25;64130.50;;;11.28;100.00
6833;BME280;3454;42.654;23.378;2024-03-02T11:42:51;64128.88;;;11.27;100.00
6833;BME280;3454;42.654;23.378;2024-03-02T11:45:22;64126.88;;;11.27;100.00
6833;BME280;3454;42.654;23.378;2024-03-02T11:47:52;64130.50;;;11.28;100.00
6833;BME280;3454;42.654;23.378;2024-03-02T11:50:40;64117.13;;;11.14;100.00
6833;BME280;3454;42.654;23.378;2024-03-02T11:53:08;64119.53;;;11.18;100.00
6833;BME280;3454;42.654;23.378;2024-03-02T11:55:36;64121.19;;;11.20;100.00
6833;BME280;3454;42.654;23.378;2024-03-02T11:58:05;64127.19;;;11.25;100.00
6833;BME280;3454;42.654;23.378;2024-03-02T12:00:31;64206.13;;;11.98;100.00
6833;BME280;3454;42.654;23.378;2024-03-02T12:05:30;64422.50;;;13.98;100.00
6833;BME280;3454;42.654;23.378;2024-03-02T12:08:00;64349.81;;;13.29;100.00
6833;BME280;3454;42.654;23.378;2024-03-02T12:10:27;64309.75;;;12.93;100.00
6833;BME280;3454;42.654;23.378;2024-03-02T12:13:06;64264.44;;;12.53;100.00
6833;BME280;3454;42.654;23.378;2024-03-02T12:15:38;64239.03;;;12.28;100.00
6833;BME280;3454;42.654;23.378;2024-03-02T12:18:06;64213.78;;;12.05;100.00
6833;BME280;3454;42.654;23.378;2024-03-02T12:20:33;64190.25;;;11.83;100.00
6833;BME280;3454;42.654;23.378;2024-03-02T12:23:00;64188.38;;;11.79;100.00
6833;BME280;3454;42.654;23.378;2024-03-02T12:25:26;64153.16;;;11.51;100.00
6833;BME280;3454;42.654;23.378;2024-03-02T12:27:55;64127.19;;;11.25;100.00
6833;BME280;3454;42.654;23.378;2024-03-02T12:30:22;64130.06;;;11.23;100.00
6833;BME280;3454;42.654;23.378;2024-03-02T12:32:48;64121.19;;;11.20;100.00
6833;BME280;3454;42.654;23.378;2024-03-02T12:35:15;64120.84;;;11.22;100.00
6833;BME280;3454;42.654;23.378;2024-03-02T12:37:48;64129.41;;;11.27;100.00
6833;BME280;3454;42.654;23.378;2024-03-02T12:40:15;64140.34;;;11.37;100.00
6833;BME280;3454;42.654;23.378;2024-03-02T12:42:44;64157.13;;;11.50;100.00
6833;BME280;3454;42.654;23.378;2024-03-02T12:45:10;64159.31;;;11.52;100.00
6833;BME280;3454;42.654;23.378;2024-03-02T12:47:36;64157.88;;;11.53;100.00
6833;BME280;3454;42.654;23.378;2024-03-02T12:50:04;64137.63;;;11.35;100.00
6833;BME280;3454;42.654;23.378;2024-03-02T12:52:30;64144.72;;;11.41;100.00
6833;BME280;3454;42.654;23.378;2024-03-02T12:55:00;64151.63;;;11.45;100.00
6833;BME280;3454;42.654;23.378;2024-03-02T12:57:27;64137.06;;;11.34;100.00
6833;BME280;3454;42.654;23.378;2024-03-02T13:00:01;64153.28;;;11.47;100.00
6833;BME280;3454;42.654;23.378;2024-03-02T13:02:30;64154.59;;;11.50;100.00
6833;BME280;3454;42.654;23.378;2024-03-02T13:04:58;64160.06;;;11.55;100.00
6833;BME280;3454;42.654;23.378;2024-03-02T13:07:24;64156.25;;;11.52;100.00
6833;BME280;3454;42.654;23.378;2024-03-02T13:09:50;64170.28;;;11.62;100.00
6833;BME280;3454;42.654;23.378;2024-03-02T13:12:19;64161.41;;;11.59;100.00
6833;BME280;3454;42.654;23.378;2024-03-02T13:14:48;64170.50;;;11.65;100.00